Погода Жундиаина неделю

Сан-Паулу, Бразилия

18 - 24 июня
  • 18июня
    Сегодня
    +11°
    +26°
    Ясно и безоблачно
    ВремяПогодаТемператураВлажностьДавлениеВетер, м/сВероятность осадков
    00:00Ясно и безоблачно+14°C72 %678 мм1.9 м/с5 %
    03:00Ясно и безоблачно+14°C75 %678 мм2.1 м/с5 %
    06:00Ясно и безоблачно+12°C82 %678 мм2.3 м/с5 %
    09:00Ясно и безоблачно+18°C55 %680 мм2.3 м/с5 %
    12:00Ясно и безоблачно+24°C28 %680 мм5.0 м/с5 %
    15:00Ясно и безоблачно+25°C28 %679 мм4.0 м/с5 %
    18:00Ясно и безоблачно+20°C47 %679 мм2.8 м/с5 %
    21:00Ясно и безоблачно+18°C51 %679 мм2.3 м/с5 %
  • 19июня
    Среда
    +12°
    +27°
    Ясно и безоблачно
    ВремяПогодаТемператураВлажностьДавлениеВетер, м/сВероятность осадков
    00:00Ясно и безоблачно+14°C78 %678 мм2.1 м/с5 %
    03:00Ясно и безоблачно+13°C81 %678 мм2.1 м/с5 %
    06:00Ясно и безоблачно+12°C81 %678 мм2.1 м/с5 %
    09:00Ясно и безоблачно+18°C55 %681 мм1.0 м/с5 %
    12:00Ясно и безоблачно+25°C33 %681 мм4.6 м/с5 %
    15:00Ясно и безоблачно+26°C30 %680 мм3.2 м/с5 %
    18:00Ясно и безоблачно+23°C43 %680 мм2.1 м/с5 %
    21:00Ясно и безоблачно+20°C47 %680 мм1.7 м/с5 %
  • 20июня
    Четверг
    +11°
    +27°
    Ясно и безоблачно
    ВремяПогодаТемператураВлажностьДавлениеВетер, м/сВероятность осадков
    00:00Ясно и безоблачно+15°C74 %680 мм2.2 м/с5 %
    03:00Ясно и безоблачно+15°C81 %679 мм2.2 м/с5 %
    06:00Ясно и безоблачно+14°C82 %679 мм2.1 м/с5 %
    09:00Ясно и безоблачно+19°C58 %681 мм0.9 м/с5 %
    12:00Ясно и безоблачно+25°C30 %682 мм0.8 м/с5 %
    15:00Ясно и безоблачно+26°C26 %681 мм1.4 м/с5 %
    18:00Ясно и безоблачно+22°C38 %681 мм2.3 м/с5 %
    21:00Ясно и безоблачно+17°C63 %681 мм2.2 м/с5 %
  • 21июня
    Пятница
    +13°
    +26°
    Ясно и безоблачно
    ВремяПогодаТемператураВлажностьДавлениеВетер, м/сВероятность осадков
    00:00Ясно и безоблачно+15°C73 %680 мм2.0 м/с5 %
    03:00Ясно и безоблачно+13°C71 %679 мм2.1 м/с5 %
    06:00Ясно и безоблачно+12°C73 %679 мм1.9 м/с5 %
    09:00Ясно и безоблачно+17°C54 %682 мм1.4 м/с5 %
    12:00Ясно и безоблачно+25°C34 %683 мм2.4 м/с5 %
    15:00Ясно и безоблачно+26°C32 %681 мм1.6 м/с5 %
    18:00Ясно и безоблачно+22°C46 %681 мм2.8 м/с5 %
    21:00Ясно и безоблачно+17°C62 %681 мм2.3 м/с5 %
  • 22июня
    Суббота
    +15°
    +27°
    Небольшая облачность
    ВремяПогодаТемператураВлажностьДавлениеВетер, м/сВероятность осадков
    00:00Облачно с прояснениями+15°C74 %680 мм2.5 м/с5 %
    03:00Облачно с прояснениями+14°C80 %679 мм2.3 м/с5 %
    06:00Ясно и безоблачно+14°C82 %679 мм2.1 м/с5 %
    09:00Практически безоблачно+19°C63 %681 мм1.9 м/с5 %
    12:00Небольшая облачность+26°C38 %682 мм4.1 м/с5 %
    15:00Небольшая облачность+27°C33 %680 мм3.1 м/с5 %
    18:00Облачно с прояснениями+24°C44 %680 мм2.5 м/с5 %
    21:00Облачно с прояснениями+18°C59 %680 мм2.3 м/с5 %
Мы используем cookies
Соглашаюсь